Time;durP1;ratioP1;P1;durP2;ratioP2;P2;SDS_P1;SDS_P2;PMS_P1;PMS_P2;Temp;Humidity;BMP_temperature;BMP_pressure;BME280_temperature;BME280_humidity;BME280_pressure;Samples;Min_cycle;Max_cycle;Signal;HPM_P1;HPM_P2
2020/12/22 00:00:17;;;;;;;3.40;1.70;;;13.30;95.40;;;;;;5065704;28;20032;-80
2020/12/22 00:02:44;;;;;;;4.20;1.90;;;13.30;95.40;;;;;;5064028;28;20044;-80
2020/12/22 00:05:10;;;;;;;3.63;1.95;;;13.20;95.30;;;;;;5063475;28;20494;-80
2020/12/22 00:07:36;;;;;;;5.20;2.42;;;13.20;95.40;;;;;;5062585;28;20033;-80
2020/12/22 00:10:04;;;;;;;5.05;2.45;;;13.30;95.40;;;;;;5067699;28;20024;-80
2020/12/22 00:12:29;;;;;;;5.93;2.65;;;13.20;95.30;;;;;;5066890;28;20383;-80
2020/12/22 00:14:55;;;;;;;6.50;3.60;;;13.20;95.30;;;;;;5064893;28;20037;-80
2020/12/22 00:17:21;;;;;;;5.95;3.25;;;13.20;95.30;;;;;;5062256;28;20044;-80
2020/12/22 00:19:47;;;;;;;8.55;4.18;;;13.30;95.30;;;;;;5063218;28;20470;-80
2020/12/22 00:22:12;;;;;;;6.03;3.00;;;13.20;95.20;;;;;;5063350;28;20044;-80
2020/12/22 00:24:38;;;;;;;6.85;3.22;;;13.30;95.30;;;;;;5067520;28;20055;-80
2020/12/22 00:27:04;;;;;;;7.22;4.18;;;13.30;95.20;;;;;;5066012;28;20052;-80
2020/12/22 00:29:31;;;;;;;9.15;3.88;;;13.20;95.20;;;;;;5068052;28;20040;-80
2020/12/22 00:32:00;;;;;;;8.13;3.90;;;13.20;95.20;;;;;;5066815;28;20028;-80
2020/12/22 00:34:28;;;;;;;6.97;3.58;;;13.20;95.10;;;;;;5065753;28;20036;-80
2020/12/22 00:36:53;;;;;;;8.32;3.63;;;13.30;95.10;;;;;;5066444;28;20112;-80
2020/12/22 00:39:19;;;;;;;7.65;3.55;;;13.30;95.00;;;;;;5061565;28;20165;-80
2020/12/22 00:41:44;;;;;;;9.38;3.95;;;13.30;95.00;;;;;;5063932;28;20371;-80
2020/12/22 00:44:10;;;;;;;8.50;3.75;;;13.30;95.00;;;;;;5062312;28;20029;-80
2020/12/22 00:46:36;;;;;;;7.13;3.13;;;13.20;95.00;;;;;;5068738;28;20040;-80
2020/12/22 00:49:02;;;;;;;8.82;3.85;;;13.30;95.00;;;;;;5062712;28;20424;-80
2020/12/22 00:51:28;;;;;;;4.28;2.65;;;13.30;94.90;;;;;;5062176;28;20029;-80
2020/12/22 00:53:54;;;;;;;5.93;2.72;;;13.30;94.90;;;;;;5067195;28;20494;-80
2020/12/22 00:56:20;;;;;;;7.88;3.78;;;13.30;94.80;;;;;;5063672;28;20033;-80
2020/12/22 00:58:46;;;;;;;9.00;3.40;;;13.30;94.80;;;;;;5065316;28;20024;-80
2020/12/22 01:01:12;;;;;;;5.35;2.78;;;13.30;94.80;;;;;;5063986;28;20497;-80
2020/12/22 01:03:37;;;;;;;7.60;2.90;;;13.30;94.70;;;;;;5066312;28;20051;-80
2020/12/22 01:06:03;;;;;;;7.90;3.40;;;13.40;94.70;;;;;;5065535;28;20034;-80
2020/12/22 01:08:29;;;;;;;8.30;3.20;;;13.30;94.60;;;;;;5066513;28;20029;-80
2020/12/22 01:10:54;;;;;;;6.47;3.10;;;13.40;94.60;;;;;;5065891;28;20363;-80
2020/12/22 01:13:20;;;;;;;5.60;2.50;;;13.30;94.60;;;;;;5059806;28;20044;-81
2020/12/22 01:15:46;;;;;;;8.23;2.70;;;13.30;94.50;;;;;;5065139;28;20017;-80
2020/12/22 01:18:13;;;;;;;5.70;2.50;;;13.40;94.50;;;;;;5066377;28;20036;-80
2020/12/22 01:20:39;;;;;;;8.02;2.55;;;13.40;94.40;;;;;;5063922;28;20458;-80
2020/12/22 01:23:04;;;;;;;5.40;2.10;;;13.40;94.50;;;;;;5060569;28;20032;-80
2020/12/22 01:25:30;;;;;;;12.40;3.75;;;13.40;94.60;;;;;;5063324;28;20121;-80
2020/12/22 01:27:56;;;;;;;9.10;3.97;;;13.30;94.50;;;;;;5062874;28;20066;-80
2020/12/22 01:30:21;;;;;;;6.10;2.78;;;13.40;94.60;;;;;;5062279;28;20036;-80
2020/12/22 01:32:47;;;;;;;4.43;2.05;;;13.40;94.60;;;;;;5066798;28;20025;-80
2020/12/22 01:35:13;;;;;;;3.22;1.92;;;13.30;94.70;;;;;;5066946;28;20182;-80
2020/12/22 01:37:38;;;;;;;3.70;1.90;;;13.40;94.70;;;;;;5065936;28;20027;-80
2020/12/22 01:40:04;;;;;;;3.88;1.92;;;13.40;94.70;;;;;;5065389;28;20458;-80
2020/12/22 01:42:30;;;;;;;4.25;1.95;;;13.40;94.80;;;;;;5060133;28;20086;-80
2020/12/22 01:44:55;;;;;;;3.50;2.03;;;13.40;94.70;;;;;;5062398;28;20052;-80
2020/12/22 01:47:23;;;;;;;3.53;2.00;;;13.40;94.70;;;;;;5064877;28;20037;-80
2020/12/22 01:49:49;;;;;;;4.30;2.00;;;13.30;94.80;;;;;;5066509;28;20043;-80
2020/12/22 01:52:14;;;;;;;2.67;1.88;;;13.40;94.90;;;;;;5066163;28;20036;-80
2020/12/22 01:54:40;;;;;;;6.10;2.10;;;13.40;94.90;;;;;;5062982;28;20118;-80
2020/12/22 01:57:13;;;;;;;3.92;1.73;;;13.40;94.90;;;;;;5059604;28;20467;-81
2020/12/22 01:59:39;;;;;;;5.53;1.95;;;13.40;94.90;;;;;;5062909;28;20403;-80
2020/12/22 02:02:04;;;;;;;4.78;1.85;;;13.30;94.90;;;;;;5061026;28;20025;-80
2020/12/22 02:04:32;;;;;;;4.35;2.00;;;13.40;94.90;;;;;;5063292;28;20378;-80
2020/12/22 02:06:58;;;;;;;4.93;2.08;;;13.40;95.00;;;;;;5066599;28;20044;-80
2020/12/22 02:09:24;;;;;;;5.30;2.17;;;13.40;95.00;;;;;;5065162;28;20067;-80
2020/12/22 02:11:50;;;;;;;4.18;1.83;;;13.40;95.00;;;;;;5061805;28;20126;-80
2020/12/22 02:14:15;;;;;;;4.07;2.10;;;13.40;95.00;;;;;;5056117;28;20021;-80
2020/12/22 02:16:41;;;;;;;4.78;2.17;;;13.40;95.00;;;;;;5064765;28;20029;-80
2020/12/22 02:19:07;;;;;;;3.63;2.03;;;13.40;94.90;;;;;;5060878;28;20021;-80
2020/12/22 02:21:32;;;;;;;4.55;1.77;;;13.40;95.00;;;;;;5066385;28;20467;-80
2020/12/22 02:23:58;;;;;;;4.65;1.90;;;13.50;94.80;;;;;;5065531;28;20036;-80
2020/12/22 02:26:25;;;;;;;4.10;1.80;;;13.50;94.80;;;;;;5070944;28;20036;-80
2020/12/22 02:28:55;;;;;;;3.75;1.67;;;13.50;94.80;;;;;;5067173;28;20041;-80
2020/12/22 02:31:25;;;;;;;2.67;1.77;;;13.50;94.80;;;;;;5085699;28;20445;-80
2020/12/22 02:33:54;;;;;;;3.13;1.75;;;13.40;94.80;;;;;;5061794;28;20025;-80
2020/12/22 02:36:20;;;;;;;3.15;1.50;;;13.50;94.90;;;;;;5042305;28;20537;-80
2020/12/22 02:38:46;;;;;;;2.67;1.40;;;13.50;94.80;;;;;;5060965;28;20025;-80
2020/12/22 02:41:12;;;;;;;1.92;1.38;;;13.50;94.80;;;;;;5060365;28;20123;-80
2020/12/22 02:43:38;;;;;;;2.25;1.20;;;13.50;94.80;;;;;;5068457;28;20090;-80
2020/12/22 02:46:04;;;;;;;2.38;1.50;;;13.50;94.80;;;;;;5069087;28;20029;-80
2020/12/22 02:48:29;;;;;;;3.30;1.48;;;13.60;94.70;;;;;;5054184;28;20417;-80
2020/12/22 02:50:55;;;;;;;2.58;1.40;;;13.50;94.70;;;;;;5054993;28;20048;-81
2020/12/22 02:53:21;;;;;;;2.78;1.50;;;13.60;94.70;;;;;;5052956;28;20041;-80
2020/12/22 02:55:46;;;;;;;2.05;1.40;;;13.60;94.60;;;;;;5056239;28;20040;-80
2020/12/22 02:58:12;;;;;;;2.40;1.58;;;13.60;94.50;;;;;;5050817;28;20055;-80
2020/12/22 03:00:47;;;;;;;3.00;1.48;;;13.60;94.50;;;;;;5047022;28;20041;-80
2020/12/22 03:03:12;;;;;;;2.47;1.40;;;13.60;94.40;;;;;;5044463;28;20043;-80
2020/12/22 03:05:40;;;;;;;2.88;1.40;;;13.60;94.30;;;;;;5058653;28;20037;-80
2020/12/22 03:08:06;;;;;;;2.85;1.38;;;13.60;94.20;;;;;;5055588;28;20114;-80
2020/12/22 03:10:32;;;;;;;1.90;1.35;;;13.60;94.20;;;;;;5053110;28;20033;-81
2020/12/22 03:12:58;;;;;;;4.15;1.40;;;13.60;94.10;;;;;;5044488;28;20372;-80
2020/12/22 03:15:23;;;;;;;2.42;1.15;;;13.60;94.10;;;;;;5063474;28;20450;-79
2020/12/22 03:17:49;;;;;;;1.27;1.10;;;13.60;94.10;;;;;;5057046;28;20029;-81
2020/12/22 03:20:15;;;;;;;2.42;1.25;;;13.60;94.00;;;;;;5051442;28;20384;-80
2020/12/22 03:22:44;;;;;;;2.28;1.20;;;13.70;94.00;;;;;;5046363;28;20123;-80
2020/12/22 03:25:11;;;;;;;2.40;1.30;;;13.60;93.90;;;;;;5049811;28;20033;-80
2020/12/22 03:27:37;;;;;;;2.03;1.27;;;13.60;93.90;;;;;;5048623;28;20419;-80
2020/12/22 03:30:10;;;;;;;2.30;1.38;;;13.60;93.80;;;;;;5046829;28;20029;-80
2020/12/22 03:32:36;;;;;;;2.75;1.10;;;13.60;93.80;;;;;;5052831;28;20048;-80
2020/12/22 03:35:02;;;;;;;1.13;1.02;;;13.60;93.80;;;;;;5044598;28;20041;-80
2020/12/22 03:37:28;;;;;;;1.77;1.10;;;13.60;93.70;;;;;;5051640;28;20376;-80
2020/12/22 03:39:55;;;;;;;2.60;1.25;;;13.60;93.70;;;;;;5046433;28;20028;-81
2020/12/22 03:42:21;;;;;;;2.40;1.10;;;13.60;93.70;;;;;;5048473;28;20048;-80
2020/12/22 03:44:48;;;;;;;2.25;1.20;;;13.70;93.70;;;;;;5066181;28;20020;-80
2020/12/22 03:47:14;;;;;;;1.88;1.00;;;13.60;93.60;;;;;;5045275;28;20037;-80
2020/12/22 03:49:40;;;;;;;2.85;1.38;;;13.70;93.60;;;;;;5047955;28;20517;-80
2020/12/22 03:52:07;;;;;;;3.00;1.42;;;13.70;93.50;;;;;;5049478;28;20033;-80
2020/12/22 03:54:33;;;;;;;2.53;1.20;;;13.70;93.40;;;;;;5055375;28;20494;-80
2020/12/22 03:56:59;;;;;;;2.03;1.27;;;13.70;93.30;;;;;;5062868;28;20035;-80
2020/12/22 03:59:25;;;;;;;2.10;1.10;;;13.70;93.10;;;;;;5049460;28;20037;-81
2020/12/22 04:01:51;;;;;;;2.47;1.08;;;13.70;93.10;;;;;;5055983;28;20025;-80
2020/12/22 04:04:21;;;;;;;4.35;1.40;;;13.60;93.20;;;;;;5052126;28;20025;-81
2020/12/22 04:06:48;;;;;;;2.47;1.17;;;13.60;93.20;;;;;;5048022;28;20065;-80
2020/12/22 04:09:16;;;;;;;3.42;1.40;;;13.60;93.20;;;;;;5051379;28;20021;-80
2020/12/22 04:11:42;;;;;;;2.95;1.10;;;13.60;93.20;;;;;;5049585;28;20033;-80
2020/12/22 04:14:08;;;;;;;2.50;1.38;;;13.60;93.20;;;;;;5043072;28;20043;-80
2020/12/22 04:16:34;;;;;;;2.55;1.00;;;13.60;93.10;;;;;;5043084;28;20037;-80
2020/12/22 04:19:00;;;;;;;1.63;0.93;;;13.60;93.00;;;;;;5047813;28;20371;-80
2020/12/22 04:21:27;;;;;;;3.65;1.30;;;13.60;93.10;;;;;;5047872;28;20053;-80
2020/12/22 04:23:54;;;;;;;3.03;1.45;;;13.60;93.10;;;;;;5044541;28;20029;-81
2020/12/22 04:26:20;;;;;;;3.40;1.10;;;13.60;93.20;;;;;;5046241;28;20036;-80
2020/12/22 04:28:45;;;;;;;3.35;1.40;;;13.60;93.20;;;;;;5041966;28;20482;-80
2020/12/22 04:31:11;;;;;;;3.95;1.60;;;13.60;93.10;;;;;;5045892;28;20033;-80
2020/12/22 04:33:37;;;;;;;1.63;1.13;;;13.60;92.90;;;;;;5048223;28;20037;-80
2020/12/22 04:36:02;;;;;;;1.52;0.90;;;13.70;92.60;;;;;;5061610;28;20111;-80
2020/12/22 04:38:28;;;;;;;5.35;1.55;;;13.60;92.50;;;;;;5056081;28;20039;-80
2020/12/22 04:40:54;;;;;;;2.40;1.10;;;13.70;92.00;;;;;;5063516;28;20029;-80
2020/12/22 04:43:21;;;;;;;2.75;1.13;;;13.70;91.70;;;;;;5070195;28;20111;-80
2020/12/22 04:45:50;;;;;;;5.50;1.20;;;13.70;91.50;;;;;;5061284;28;20041;-80
2020/12/22 04:48:19;;;;;;;2.03;0.90;;;13.70;91.50;;;;;;5065367;28;20026;-81
2020/12/22 04:50:47;;;;;;;3.70;1.13;;;13.70;91.40;;;;;;5056809;28;20028;-80
2020/12/22 04:53:13;;;;;;;4.97;1.15;;;13.70;91.40;;;;;;5064139;28;20040;-80
2020/12/22 04:55:38;;;;;;;4.68;1.55;;;13.70;91.20;;;;;;5068520;28;20375;-80
2020/12/22 04:58:05;;;;;;;4.57;1.08;;;13.70;91.10;;;;;;5063939;28;20040;-81
2020/12/22 05:00:31;;;;;;;3.58;0.98;;;13.70;90.90;;;;;;5061179;28;20032;-80
2020/12/22 05:03:00;;;;;;;3.70;1.23;;;13.70;90.60;;;;;;5062764;28;20032;-80
2020/12/22 05:05:26;;;;;;;7.88;1.77;;;13.70;90.50;;;;;;5066167;28;20082;-80
2020/12/22 05:07:51;;;;;;;6.15;1.83;;;13.60;90.50;;;;;;5065981;28;20375;-80
2020/12/22 05:10:17;;;;;;;4.53;1.30;;;13.60;90.10;;;;;;5065105;28;20513;-80
2020/12/22 05:12:43;;;;;;;6.72;1.15;;;13.60;90.20;;;;;;5067423;28;20037;-80
2020/12/22 05:15:10;;;;;;;5.05;1.58;;;13.60;90.10;;;;;;5063192;28;20378;-80
2020/12/22 05:17:45;;;;;;;4.38;1.20;;;13.60;89.90;;;;;;5065325;28;20025;-80
2020/12/22 05:20:14;;;;;;;;;;;13.60;89.90;;;;;;5063274;28;20021;-80
2020/12/22 05:22:41;;;;;;;5.78;1.40;;;13.60;89.70;;;;;;5064541;28;20378;-80
2020/12/22 05:25:06;;;;;;;6.07;1.65;;;13.60;89.90;;;;;;5064664;28;20033;-80
2020/12/22 05:27:33;;;;;;;6.30;1.45;;;13.60;90.00;;;;;;5066946;28;20441;-80
2020/12/22 05:30:04;;;;;;;5.97;1.40;;;13.60;90.00;;;;;;5062979;28;20091;-80
2020/12/22 05:32:31;;;;;;;4.82;1.30;;;13.60;90.20;;;;;;5065247;28;20030;-80
2020/12/22 05:34:57;;;;;;;4.50;1.50;;;13.60;90.20;;;;;;5063338;28;20029;-80
2020/12/22 05:37:25;;;;;;;6.25;1.85;;;13.60;90.30;;;;;;5063125;28;20090;-80
2020/12/22 05:39:51;;;;;;;6.82;1.63;;;13.60;90.40;;;;;;5065173;28;20032;-80
2020/12/22 05:42:19;;;;;;;6.47;1.75;;;13.50;90.50;;;;;;5065105;28;20035;-80
2020/12/22 05:44:52;;;;;;;5.07;1.52;;;13.50;90.40;;;;;;5066017;28;20085;-80
2020/12/22 05:47:19;;;;;;;6.25;1.67;;;13.60;90.50;;;;;;5063653;28;20028;-80
2020/12/22 05:49:56;;;;;;;4.50;1.40;;;13.50;90.40;;;;;;5060646;28;20028;-79
2020/12/22 05:52:23;;;;;;;5.93;1.60;;;13.50;90.30;;;;;;5059533;28;20111;-80
2020/12/22 05:54:53;;;;;;;8.77;1.40;;;13.50;90.30;;;;;;5063703;28;20486;-80
2020/12/22 05:57:20;;;;;;;7.53;1.65;;;13.50;90.10;;;;;;5058581;28;20472;-80
2020/12/22 05:59:46;;;;;;;5.55;1.30;;;13.50;90.00;;;;;;5061151;28;20032;-80
2020/12/22 06:02:26;;;;;;;5.97;1.48;;;13.50;90.10;;;;;;5058408;28;20087;-80
2020/12/22 06:04:54;;;;;;;5.40;1.35;;;13.40;90.10;;;;;;5067341;28;20060;-80
2020/12/22 06:07:21;;;;;;;7.93;1.40;;;13.40;90.30;;;;;;5066349;28;20024;-80
2020/12/22 06:09:46;;;;;;;5.85;1.85;;;13.40;90.20;;;;;;5059019;28;20467;-80
2020/12/22 06:12:12;;;;;;;6.38;1.60;;;13.40;89.90;;;;;;5064347;28;20029;-80
2020/12/22 06:14:43;;;;;;;9.25;1.80;;;13.50;89.70;;;;;;5061146;28;20029;-80
2020/12/22 06:17:12;;;;;;;7.45;1.85;;;13.40;89.60;;;;;;5055175;28;20463;-80
2020/12/22 06:19:39;;;;;;;8.73;1.85;;;13.50;89.60;;;;;;5061541;28;20435;-80
2020/12/22 06:22:08;;;;;;;10.02;1.90;;;13.40;89.70;;;;;;5064386;28;20095;-80
2020/12/22 06:24:34;;;;;;;6.93;1.65;;;13.40;89.80;;;;;;5065074;28;20584;-80
2020/12/22 06:27:05;;;;;;;7.75;1.85;;;13.40;90.10;;;;;;5068059;28;20467;-80
2020/12/22 06:29:31;;;;;;;9.15;1.75;;;13.40;90.70;;;;;;5066867;28;20025;-81
2020/12/22 06:32:16;;;;;;;9.52;1.63;;;13.30;90.80;;;;;;5053962;28;20055;-80
2020/12/22 06:34:42;;;;;;;8.07;2.17;;;13.20;91.00;;;;;;5063629;28;20032;-81
2020/12/22 06:37:08;;;;;;;6.13;1.65;;;13.20;91.00;;;;;;5061956;28;20041;-80
2020/12/22 06:39:44;;;;;;;6.28;1.65;;;13.20;91.00;;;;;;5065996;28;20028;-80
2020/12/22 06:42:30;;;;;;;6.82;1.83;;;13.20;91.20;;;;;;5056969;28;20036;-80
2020/12/22 06:45:15;;;;;;;7.07;1.85;;;13.20;91.20;;;;;;5062967;28;20123;-80
2020/12/22 06:47:40;;;;;;;6.72;1.50;;;13.20;91.40;;;;;;5065499;28;20371;-80
2020/12/22 06:50:06;;;;;;;6.03;2.00;;;13.20;91.60;;;;;;5055471;28;20025;-80
2020/12/22 06:52:36;;;;;;;6.55;2.35;;;13.20;91.90;;;;;;5062818;28;20037;-80
2020/12/22 06:55:10;;;;;;;5.10;1.95;;;13.20;92.00;;;;;;5063302;28;20062;-80
2020/12/22 06:57:51;;;;;;;7.20;2.72;;;13.10;92.10;;;;;;5066302;28;20132;-80
2020/12/22 07:00:24;;;;;;;7.15;2.40;;;13.10;92.30;;;;;;5059428;28;20049;-80
2020/12/22 07:02:50;;;;;;;5.05;1.98;;;13.10;92.20;;;;;;5057090;28;20110;-80
2020/12/22 07:05:39;;;;;;;7.57;2.40;;;13.10;92.10;;;;;;5060971;28;20060;-80
2020/12/22 07:08:05;;;;;;;6.82;1.83;;;13.10;92.00;;;;;;5065594;28;20131;-80
2020/12/22 07:10:36;;;;;;;5.32;1.80;;;13.10;91.70;;;;;;5063531;28;20033;-80
2020/12/22 07:13:05;;;;;;;4.80;1.80;;;13.10;91.70;;;;;;5068413;28;20028;-80
2020/12/22 07:15:54;;;;;;;7.30;2.15;;;13.10;91.80;;;;;;5063422;28;20033;-80
2020/12/22 07:18:42;;;;;;;5.63;2.17;;;13.10;91.80;;;;;;5064043;28;20031;-80
2020/12/22 07:21:09;;;;;;;3.88;1.55;;;13.10;92.00;;;;;;5060221;28;20033;-80
2020/12/22 07:23:35;;;;;;;5.53;1.65;;;13.10;92.10;;;;;;5069235;28;20125;-80
2020/12/22 07:26:01;;;;;;;7.30;2.10;;;13.10;92.20;;;;;;5057947;28;20062;-81
2020/12/22 07:28:28;;;;;;;5.45;2.05;;;13.00;92.50;;;;;;5069220;28;20127;-80
2020/12/22 07:30:53;;;;;;;6.85;2.53;;;13.00;92.50;;;;;;5065478;28;20032;-80
2020/12/22 07:33:20;;;;;;;8.68;2.38;;;13.00;92.60;;;;;;5068794;28;20383;-80
2020/12/22 07:35:48;;;;;;;5.00;2.15;;;12.90;92.90;;;;;;5068501;28;20033;-80
2020/12/22 07:38:14;;;;;;;6.13;2.13;;;12.90;93.00;;;;;;5065382;28;20387;-80
2020/12/22 07:40:41;;;;;;;6.03;2.47;;;12.90;93.20;;;;;;5069495;28;20021;-80
2020/12/22 07:43:09;;;;;;;8.20;3.00;;;12.90;92.90;;;;;;5069970;28;20048;-80
2020/12/22 07:45:35;;;;;;;8.48;2.85;;;12.80;93.00;;;;;;5063213;28;20124;-80
2020/12/22 07:48:07;;;;;;;4.03;1.80;;;12.90;92.80;;;;;;5068411;28;20024;-80
2020/12/22 07:50:34;;;;;;;6.70;2.30;;;12.90;92.50;;;;;;5059661;28;20082;-80
2020/12/22 07:52:59;;;;;;;7.32;1.80;;;12.80;92.30;;;;;;5065469;28;20025;-80
2020/12/22 07:55:26;;;;;;;5.35;1.90;;;12.80;92.20;;;;;;5067681;28;20036;-80
2020/12/22 07:57:52;;;;;;;4.80;1.90;;;12.80;92.00;;;;;;5081761;28;20107;-80
2020/12/22 08:00:19;;;;;;;7.88;2.17;;;12.70;91.90;;;;;;5065927;28;20111;-80
2020/12/22 08:02:45;;;;;;;8.82;2.47;;;12.80;91.90;;;;;;5067045;28;20028;-80
2020/12/22 08:05:13;;;;;;;8.35;2.25;;;12.80;92.00;;;;;;5083737;28;20024;-80
2020/12/22 08:07:42;;;;;;;7.85;2.50;;;12.70;92.10;;;;;;5081085;28;20024;-80
2020/12/22 08:10:14;;;;;;;9.65;2.92;;;12.70;92.00;;;;;;5067746;28;20020;-80
2020/12/22 08:12:41;;;;;;;7.47;2.72;;;12.70;92.00;;;;;;5068761;28;20028;-80
2020/12/22 08:15:09;;;;;;;6.95;2.88;;;12.80;92.00;;;;;;5064879;28;20105;-80
2020/12/22 08:17:43;;;;;;;8.10;2.85;;;12.70;92.10;;;;;;5063585;28;20032;-80
2020/12/22 08:20:08;;;;;;;7.83;2.53;;;12.80;92.10;;;;;;5060069;28;20028;-80
2020/12/22 08:22:36;;;;;;;5.90;2.40;;;12.70;92.10;;;;;;5068897;28;20032;-80
2020/12/22 08:25:03;;;;;;;7.47;2.30;;;12.70;92.20;;;;;;5065400;28;20044;-80
2020/12/22 08:27:32;;;;;;;7.65;2.40;;;12.70;92.20;;;;;;5066700;28;20109;-80
2020/12/22 08:29:58;;;;;;;9.50;2.60;;;12.70;92.20;;;;;;5066354;28;20035;-80
2020/12/22 08:32:27;;;;;;;10.57;3.13;;;12.70;92.20;;;;;;5064100;28;20489;-80
2020/12/22 08:34:53;;;;;;;10.10;2.60;;;12.70;91.80;;;;;;5064552;28;20062;-81
2020/12/22 08:37:26;;;;;;;7.00;2.03;;;12.70;91.30;;;;;;5061850;28;20254;-80
2020/12/22 08:39:53;;;;;;;9.07;2.38;;;12.80;91.00;;;;;;5066440;28;20372;-80
2020/12/22 08:42:20;;;;;;;8.10;2.20;;;12.80;91.00;;;;;;5064170;28;20424;-80
2020/12/22 08:44:52;;;;;;;10.45;2.75;;;12.80;91.20;;;;;;5063857;28;20081;-80
2020/12/22 08:47:20;;;;;;;7.05;2.53;;;12.80;91.50;;;;;;5064731;28;20029;-80
2020/12/22 08:49:49;;;;;;;8.45;2.63;;;12.70;91.90;;;;;;5059939;28;20017;-80
2020/12/22 08:52:17;;;;;;;7.07;3.03;;;12.70;92.10;;;;;;5064579;28;20029;-80
2020/12/22 08:54:44;;;;;;;7.30;2.90;;;12.70;92.30;;;;;;5060106;28;20455;-80
2020/12/22 08:57:10;;;;;;;7.70;3.28;;;12.70;92.40;;;;;;5059613;28;20021;-80
2020/12/22 08:59:36;;;;;;;11.30;3.53;;;12.70;92.50;;;;;;5064963;28;20048;-80
2020/12/22 09:02:02;;;;;;;12.30;3.42;;;12.70;92.50;;;;;;5063479;28;20036;-80
2020/12/22 09:04:32;;;;;;;8.60;3.35;;;12.70;92.30;;;;;;5063659;28;20051;-80
2020/12/22 09:06:59;;;;;;;9.88;3.20;;;12.70;92.30;;;;;;5067761;28;20423;-80
2020/12/22 09:09:32;;;;;;;9.75;2.90;;;12.70;92.30;;;;;;5051250;28;20085;-80
2020/12/22 09:12:09;;;;;;;10.82;3.17;;;12.80;91.90;;;;;;5053557;28;20029;-80
2020/12/22 09:14:56;;;;;;;9.38;3.00;;;12.80;91.90;;;;;;5056090;28;20571;-81
2020/12/22 09:17:29;;;;;;;8.95;3.28;;;12.80;91.70;;;;;;5057300;28;20545;-80
2020/12/22 09:19:55;;;;;;;13.82;4.65;;;12.70;91.90;;;;;;5067587;28;20037;-80
2020/12/22 09:22:23;;;;;;;11.88;5.05;;;12.70;92.20;;;;;;5061885;28;20092;-80
2020/12/22 09:24:56;;;;;;;11.13;4.55;;;12.60;92.60;;;;;;5057873;28;20021;-80
2020/12/22 09:27:33;;;;;;;12.10;4.80;;;12.60;92.90;;;;;;5062785;28;20029;-80
2020/12/22 09:30:00;;;;;;;14.93;5.07;;;12.50;93.00;;;;;;5061710;28;20028;-80
2020/12/22 09:32:26;;;;;;;10.77;4.88;;;12.50;93.10;;;;;;5066314;28;20059;-81
2020/12/22 09:34:52;;;;;;;12.43;4.80;;;12.50;93.00;;;;;;5065597;28;20040;-72
2020/12/22 09:37:21;;;;;;;12.93;4.85;;;12.50;93.10;;;;;;5064291;28;20087;-72
2020/12/22 09:39:47;;;;;;;11.90;5.55;;;12.60;93.10;;;;;;5061715;28;20036;-72
2020/12/22 09:42:12;;;;;;;11.85;4.72;;;12.60;92.90;;;;;;5062124;28;20098;-73
2020/12/22 09:44:38;;;;;;;9.75;4.05;;;12.60;92.70;;;;;;5066882;28;20112;-73
2020/12/22 09:47:04;;;;;;;12.05;3.90;;;12.70;92.50;;;;;;5066559;28;20495;-72
2020/12/22 09:49:30;;;;;;;8.98;3.50;;;12.70;92.10;;;;;;5066938;28;20059;-73
2020/12/22 09:51:56;;;;;;;9.88;3.30;;;12.70;92.00;;;;;;5063692;28;20067;-73
2020/12/22 09:54:22;;;;;;;7.65;2.47;;;12.70;91.80;;;;;;5064632;28;20047;-72
2020/12/22 09:56:49;;;;;;;7.93;2.40;;;12.70;91.20;;;;;;5063422;28;20036;-73
2020/12/22 09:59:15;;;;;;;7.20;2.33;;;12.80;91.00;;;;;;5059850;28;20036;-73
2020/12/22 10:01:41;;;;;;;8.13;2.10;;;12.70;90.60;;;;;;5059202;28;20040;-72
2020/12/22 10:04:08;;;;;;;10.25;2.28;;;12.70;90.50;;;;;;5059225;28;20074;-76
2020/12/22 10:06:33;;;;;;;7.57;2.05;;;12.70;90.30;;;;;;5060218;28;20371;-73
2020/12/22 10:08:59;;;;;;;8.00;2.20;;;12.70;90.40;;;;;;5064970;28;20540;-72
2020/12/22 10:11:26;;;;;;;9.15;2.35;;;12.70;90.50;;;;;;5063671;28;20036;-74
2020/12/22 10:13:52;;;;;;;8.80;2.30;;;12.70;90.70;;;;;;5057907;28;20039;-72
2020/12/22 10:16:20;;;;;;;10.68;2.50;;;12.70;90.70;;;;;;5061332;28;20041;-72
2020/12/22 10:18:46;;;;;;;9.35;2.47;;;12.70;90.80;;;;;;5063231;28;20056;-72
2020/12/22 10:21:14;;;;;;;7.65;2.38;;;12.80;90.70;;;;;;5064318;28;21059;-72
2020/12/22 10:23:41;;;;;;;8.63;2.67;;;12.80;90.80;;;;;;5066498;28;20040;-72
2020/12/22 10:26:08;;;;;;;7.40;2.67;;;12.80;90.90;;;;;;5062409;28;20051;-72
2020/12/22 10:28:36;;;;;;;6.90;2.47;;;12.80;90.90;;;;;;5065028;28;20044;-72
2020/12/22 10:31:02;;;;;;;8.65;2.50;;;12.80;90.90;;;;;;5064877;28;20124;-76
2020/12/22 10:33:28;;;;;;;4.75;2.22;;;12.80;90.60;;;;;;5063675;28;20581;-75
2020/12/22 10:35:54;;;;;;;5.80;2.40;;;12.90;90.60;;;;;;5064423;28;20044;-72
2020/12/22 10:38:20;;;;;;;9.02;2.47;;;12.90;90.80;;;;;;5061537;28;21683;-72
2020/12/22 10:40:47;;;;;;;7.25;2.22;;;12.80;90.80;;;;;;5067551;28;20036;-72
2020/12/22 10:43:13;;;;;;;5.90;2.20;;;12.90;90.70;;;;;;5059094;28;20135;-72
2020/12/22 10:45:39;;;;;;;8.32;2.83;;;12.90;90.60;;;;;;5067880;28;20033;-72
2020/12/22 10:48:06;;;;;;;8.75;2.88;;;12.90;90.60;;;;;;5061711;28;20115;-72
2020/12/22 10:50:34;;;;;;;7.50;2.97;;;13.10;90.60;;;;;;5070369;28;20040;-73
2020/12/22 10:53:00;;;;;;;5.95;2.97;;;13.10;90.00;;;;;;5063881;28;20078;-72
2020/12/22 10:55:26;;;;;;;7.60;2.78;;;13.10;90.00;;;;;;5062727;28;20037;-72
2020/12/22 10:57:51;;;;;;;8.65;3.10;;;13.10;89.90;;;;;;5069263;28;20036;-72
2020/12/22 11:00:17;;;;;;;11.00;3.63;;;13.10;90.00;;;;;;5067610;28;20110;-72
2020/12/22 11:02:48;;;;;;;9.18;3.78;;;13.10;89.90;;;;;;5069248;28;20563;-72
2020/12/22 11:05:14;;;;;;;10.98;3.60;;;13.10;89.90;;;;;;5068606;28;20475;-72
2020/12/22 11:07:50;;;;;;;9.15;3.55;;;13.10;89.80;;;;;;5064844;28;20048;-73
2020/12/22 11:10:16;;;;;;;10.00;3.53;;;13.20;89.70;;;;;;5065081;28;20033;-72
2020/12/22 11:12:41;;;;;;;8.13;3.17;;;13.30;89.70;;;;;;5071590;28;20035;-75
2020/12/22 11:15:08;;;;;;;8.38;3.20;;;13.40;89.70;;;;;;5066940;28;20093;-76
2020/12/22 11:17:34;;;;;;;11.57;4.22;;;13.40;89.70;;;;;;5071399;28;20032;-72
2020/12/22 11:20:00;;;;;;;10.77;3.53;;;13.50;89.30;;;;;;5067417;28;20033;-75
2020/12/22 11:22:26;;;;;;;10.43;3.83;;;13.50;89.30;;;;;;5063635;28;20033;-72
2020/12/22 11:24:52;;;;;;;8.85;3.47;;;13.60;89.20;;;;;;5058919;28;20388;-73
2020/12/22 11:27:17;;;;;;;9.88;3.50;;;13.60;88.90;;;;;;5061763;28;20386;-73
2020/12/22 11:29:43;;;;;;;9.73;3.35;;;13.70;88.50;;;;;;5063624;28;20490;-72
2020/12/22 11:32:10;;;;;;;8.02;2.60;;;13.80;88.50;;;;;;5048945;28;20033;-72
2020/12/22 11:34:36;;;;;;;8.82;2.60;;;13.90;87.40;;;;;;5050986;28;20099;-72
2020/12/22 11:37:03;;;;;;;8.60;2.83;;;14.00;87.30;;;;;;5049617;28;20529;-72
2020/12/22 11:39:28;;;;;;;8.25;2.40;;;14.00;86.70;;;;;;5054470;28;20059;-72
2020/12/22 11:42:04;;;;;;;9.90;2.80;;;14.00;87.00;;;;;;5062876;28;20033;-73
2020/12/22 11:44:30;;;;;;;9.30;2.88;;;14.10;86.10;;;;;;5067767;28;20033;-72
2020/12/22 11:46:56;;;;;;;11.20;3.15;;;14.10;86.50;;;;;;5062994;28;20074;-72
2020/12/22 11:49:22;;;;;;;8.05;2.92;;;14.10;86.50;;;;;;5067406;28;20036;-73
2020/12/22 11:51:54;;;;;;;9.27;3.20;;;14.30;86.20;;;;;;5069253;28;20479;-73
2020/12/22 11:54:20;;;;;;;11.57;3.35;;;14.30;86.10;;;;;;5062883;28;20582;-72
2020/12/22 11:56:47;;;;;;;14.23;3.97;;;14.30;85.80;;;;;;5064380;28;20542;-72
2020/12/22 11:59:13;;;;;;;14.30;4.28;;;14.50;86.00;;;;;;5063534;28;20073;-74
2020/12/22 12:01:39;;;;;;;8.55;3.40;;;14.50;85.80;;;;;;5065920;28;20125;-73
2020/12/22 12:04:05;;;;;;;7.75;3.53;;;14.50;86.00;;;;;;5065924;28;20447;-73
2020/12/22 12:06:30;;;;;;;12.63;4.30;;;14.50;85.80;;;;;;5065504;28;20040;-73
2020/12/22 12:08:56;;;;;;;10.38;3.97;;;14.40;86.00;;;;;;5065817;28;20036;-73
2020/12/22 12:11:21;;;;;;;9.63;3.60;;;14.30;86.10;;;;;;5063472;28;20037;-72
2020/12/22 12:13:47;;;;;;;9.00;3.55;;;14.40;86.20;;;;;;5060551;28;20491;-73
2020/12/22 12:16:17;;;;;;;10.63;3.53;;;14.40;86.00;;;;;;5064663;28;20425;-73
2020/12/22 12:18:44;;;;;;;9.85;3.88;;;14.40;86.30;;;;;;5063383;28;20064;-72
2020/12/22 12:21:17;;;;;;;9.32;3.50;;;14.30;86.20;;;;;;5066181;28;20040;-72
2020/12/22 12:23:43;;;;;;;9.88;3.33;;;14.30;86.30;;;;;;5063910;28;20043;-73
2020/12/22 12:26:10;;;;;;;11.27;3.75;;;14.30;86.30;;;;;;5052827;28;20502;-72
2020/12/22 12:28:40;;;;;;;13.18;2.75;;;14.20;86.30;;;;;;5043102;28;20055;-73
2020/12/22 12:31:06;;;;;;;7.75;2.28;;;14.20;86.00;;;;;;5041555;28;20042;-76
2020/12/22 12:33:32;;;;;;;9.75;2.75;;;14.10;86.40;;;;;;5037585;28;20400;-74
2020/12/22 12:35:58;;;;;;;10.30;3.10;;;14.20;86.80;;;;;;5041883;28;20040;-73
2020/12/22 12:38:23;;;;;;;7.53;2.47;;;14.20;87.00;;;;;;5037355;28;20055;-73
2020/12/22 12:40:49;;;;;;;8.68;3.15;;;14.10;86.70;;;;;;5039288;28;20056;-73
2020/12/22 12:43:14;;;;;;;7.85;2.53;;;14.10;86.30;;;;;;5044655;28;20048;-73
2020/12/22 12:45:40;;;;;;;7.57;2.10;;;14.10;86.30;;;;;;5043647;28;20037;-72